Lakeport, New York
Current Conditions -  °F | °C
As of 4:54 AM on Friday 28 Nov 2014 (Local Time) from KSYR Reporting Station
Light Snow Light Snow  
Wind Chill: 18°   Ceiling: 3900
Heat Index: 26°   Visibility: 9mi
Dew Point: 23°   Wind: 8mph
Humidity: 88%   Direction: 260°W
Pressure: 30.13"   Gusts: NA
Location:  43.0618°N, 75.8688°W
Report Text: KSYR 280954Z 26007KT 9SM -SN OVC039 M03/M05 A3013 RMK AO2 SNB23 SLP204 P0000 T10331050
Loading
Personal Weather Stations






























Interactive Weather Map New forecast layout! Learn more

10-Day Weather Forecast

Advertisements
Track Severe Weather on mobile